createdAt,value
2019-02-18T00:00:32.746Z,4.80
2019-02-18T00:02:59.794Z,4.70
2019-02-18T00:05:27.091Z,4.73
2019-02-18T00:07:54.143Z,4.07
2019-02-18T00:10:21.249Z,4.30
2019-02-18T00:12:48.306Z,4.37
2019-02-18T00:15:15.365Z,5.17
2019-02-18T00:17:42.537Z,4.80
2019-02-18T00:20:09.638Z,4.73
2019-02-18T00:22:36.701Z,4.40
2019-02-18T00:25:03.882Z,4.10
2019-02-18T00:27:30.968Z,4.57
2019-02-18T00:29:58.029Z,4.70
2019-02-18T00:32:25.128Z,4.13
2019-02-18T00:34:52.290Z,4.07
2019-02-18T00:37:24.423Z,4.90
2019-02-18T00:39:48.153Z,4.40
2019-02-18T00:42:15.200Z,4.63
2019-02-18T00:44:42.264Z,4.50
2019-02-18T00:47:09.938Z,4.80
2019-02-18T00:49:37.057Z,4.40
2019-02-18T00:52:04.150Z,4.50
2019-02-18T00:54:31.261Z,4.97
2019-02-18T00:56:58.380Z,4.63
2019-02-18T00:59:25.473Z,4.70
2019-02-18T01:01:52.558Z,4.50
2019-02-18T01:04:19.737Z,4.17
2019-02-18T01:06:46.835Z,4.70
2019-02-18T01:09:13.900Z,4.50
2019-02-18T01:11:40.983Z,4.60
2019-02-18T01:14:08.045Z,4.63
2019-02-18T01:16:35.163Z,4.00
2019-02-18T01:19:02.215Z,4.20
2019-02-18T01:21:29.282Z,4.63
2019-02-18T01:23:56.511Z,4.87
2019-02-18T01:26:23.764Z,4.00
2019-02-18T01:28:51.002Z,4.10
2019-02-18T01:31:18.086Z,4.23
2019-02-18T01:33:45.144Z,4.63
2019-02-18T01:36:12.370Z,5.43
2019-02-18T01:38:39.439Z,4.60
2019-02-18T01:41:06.524Z,4.67
2019-02-18T01:43:33.625Z,4.90
2019-02-18T01:46:00.723Z,4.27
2019-02-18T01:48:27.769Z,4.90
2019-02-18T01:50:54.859Z,3.80
2019-02-18T01:53:22.115Z,4.70
2019-02-18T01:55:49.199Z,4.83
2019-02-18T01:58:16.258Z,4.57
2019-02-18T02:00:43.349Z,5.00
2019-02-18T02:03:10.503Z,4.53
2019-02-18T02:05:37.594Z,4.57
2019-02-18T02:08:04.657Z,4.50
2019-02-18T02:10:31.747Z,5.13
2019-02-18T02:12:58.853Z,4.40
2019-02-18T02:15:25.902Z,4.33
2019-02-18T02:17:52.991Z,4.30
2019-02-18T02:20:20.222Z,4.60
2019-02-18T02:22:47.320Z,4.57
2019-02-18T02:25:14.407Z,4.60
2019-02-18T02:27:41.478Z,4.47
2019-02-18T02:30:08.558Z,4.77
2019-02-18T02:32:35.644Z,4.67
2019-02-18T02:35:02.830Z,4.73
2019-02-18T02:37:29.941Z,4.20
2019-02-18T02:39:57.048Z,4.97
2019-02-18T02:42:24.127Z,4.03
2019-02-18T02:44:51.335Z,4.77
2019-02-18T02:47:18.400Z,3.90
2019-02-18T02:49:45.497Z,4.20
2019-02-18T02:52:12.590Z,4.13
2019-02-18T02:54:39.650Z,4.40
2019-02-18T02:57:06.815Z,4.50
2019-02-18T02:59:33.941Z,4.37
2019-02-18T03:02:01.013Z,4.53
2019-02-18T03:04:28.131Z,4.60
2019-02-18T03:06:55.278Z,3.93
2019-02-18T03:09:22.440Z,4.70
2019-02-18T03:11:49.611Z,4.20
2019-02-18T03:14:16.942Z,3.80
2019-02-18T03:16:44.067Z,4.07
2019-02-18T03:19:11.223Z,4.67
2019-02-18T03:21:38.343Z,4.80
2019-02-18T03:24:05.390Z,4.40
2019-02-18T03:26:32.577Z,4.27
2019-02-18T03:28:59.679Z,3.60
2019-02-18T03:31:26.746Z,5.10
2019-02-18T03:33:53.804Z,4.00
2019-02-18T03:36:20.981Z,4.30
2019-02-18T03:38:48.049Z,3.73
2019-02-18T03:41:15.155Z,4.03
2019-02-18T03:43:42.222Z,4.07
2019-02-18T03:46:09.280Z,3.80
2019-02-18T03:48:36.414Z,4.80
2019-02-18T03:51:03.657Z,3.90
2019-02-18T03:53:30.719Z,4.33
2019-02-18T03:55:57.978Z,3.90
2019-02-18T03:58:25.212Z,4.13
2019-02-18T04:00:52.303Z,3.97
2019-02-18T04:03:19.523Z,4.10
2019-02-18T04:05:46.750Z,3.90
2019-02-18T04:08:13.867Z,4.20
2019-02-18T04:10:41.000Z,3.90
2019-02-18T04:13:08.138Z,3.87
2019-02-18T04:15:35.193Z,3.60
2019-02-18T04:18:02.286Z,3.43
2019-02-18T04:20:29.354Z,4.07
2019-02-18T04:22:56.444Z,5.03
2019-02-18T04:25:23.541Z,4.60
2019-02-18T04:27:50.626Z,3.97
2019-02-18T04:30:17.687Z,4.33
2019-02-18T04:32:44.746Z,4.30
2019-02-18T04:35:11.967Z,4.50
2019-02-18T04:37:39.046Z,4.70
2019-02-18T04:40:06.145Z,4.53
2019-02-18T04:42:33.212Z,3.93
2019-02-18T04:45:00.403Z,4.00
2019-02-18T04:47:27.545Z,4.20
2019-02-18T04:49:54.635Z,4.27
2019-02-18T04:52:21.690Z,4.33
2019-02-18T04:54:48.957Z,4.93
2019-02-18T04:57:16.018Z,4.37
2019-02-18T04:59:43.111Z,4.03
2019-02-18T05:02:10.863Z,4.60
2019-02-18T05:04:37.970Z,4.63
2019-02-18T05:07:05.081Z,4.60
2019-02-18T05:09:32.141Z,4.10
2019-02-18T05:11:59.265Z,4.30
2019-02-18T05:14:26.369Z,4.03
2019-02-18T05:16:53.469Z,3.73
2019-02-18T05:19:22.966Z,4.20
2019-02-18T05:21:49.328Z,3.60
2019-02-18T05:24:16.425Z,3.83
2019-02-18T05:26:43.647Z,3.80
2019-02-18T05:29:10.793Z,4.13
2019-02-18T05:31:37.894Z,4.50
2019-02-18T05:34:04.949Z,3.73
2019-02-18T05:36:32.020Z,3.70
2019-02-18T05:38:59.297Z,4.23
2019-02-18T05:41:26.361Z,4.73
2019-02-18T05:43:53.627Z,4.10
2019-02-18T05:46:20.748Z,5.10
2019-02-18T05:48:47.854Z,4.17
2019-02-18T05:51:14.940Z,5.20
2019-02-18T05:53:42.232Z,5.03
2019-02-18T05:56:09.284Z,4.20
2019-02-18T05:58:36.364Z,4.33
2019-02-18T06:01:03.448Z,4.90
2019-02-18T06:03:30.600Z,4.30
2019-02-18T06:05:57.687Z,4.97
2019-02-18T06:08:24.759Z,4.00
2019-02-18T06:10:51.855Z,4.70
2019-02-18T06:13:18.913Z,5.10
2019-02-18T06:15:46.039Z,4.50
2019-02-18T06:18:13.128Z,5.60
2019-02-18T06:20:40.191Z,4.60
2019-02-18T06:23:07.385Z,4.83
2019-02-18T06:25:34.644Z,5.00
2019-02-18T06:28:04.877Z,4.90
2019-02-18T06:30:31.866Z,5.30
2019-02-18T06:33:01.094Z,4.87
2019-02-18T06:35:27.725Z,5.60
2019-02-18T06:37:54.820Z,4.70
2019-02-18T06:40:21.883Z,4.80
2019-02-18T06:42:48.975Z,5.50
2019-02-18T06:45:16.096Z,5.43
2019-02-18T06:47:43.163Z,4.30
2019-02-18T06:50:10.250Z,5.60
2019-02-18T06:52:37.400Z,4.60
2019-02-18T06:55:04.497Z,5.00
2019-02-18T06:57:31.587Z,4.73
2019-02-18T06:59:58.645Z,5.00
2019-02-18T07:02:25.734Z,5.07
2019-02-18T07:04:52.943Z,5.50
2019-02-18T07:07:20.001Z,5.57
2019-02-18T07:09:51.165Z,5.10
2019-02-18T07:12:16.485Z,6.07
2019-02-18T07:14:43.542Z,4.70
2019-02-18T07:17:12.697Z,5.67
2019-02-18T07:19:39.819Z,6.10
2019-02-18T07:22:06.866Z,5.77
2019-02-18T07:24:34.031Z,5.90
2019-02-18T07:27:01.120Z,5.77
2019-02-18T07:29:28.213Z,6.40
2019-02-18T07:31:55.285Z,6.00
2019-02-18T07:34:22.633Z,5.37
2019-02-18T07:36:49.964Z,6.60
2019-02-18T07:39:17.040Z,6.50
2019-02-18T07:41:44.097Z,6.17
2019-02-18T07:44:11.236Z,7.30
2019-02-18T07:46:38.457Z,7.43
2019-02-18T07:49:05.558Z,7.33
2019-02-18T07:51:32.652Z,8.10
2019-02-18T07:53:59.714Z,6.80
2019-02-18T07:56:26.898Z,7.20
2019-02-18T07:58:54.013Z,7.00
2019-02-18T08:01:21.122Z,7.40
2019-02-18T08:03:48.214Z,8.67
2019-02-18T08:06:15.471Z,8.13
2019-02-18T08:08:42.531Z,8.30
2019-02-18T08:11:09.633Z,9.07
2019-02-18T08:13:36.699Z,8.57
2019-02-18T08:16:03.765Z,8.87
2019-02-18T08:18:30.924Z,8.37
2019-02-18T08:20:58.037Z,8.47
2019-02-18T08:23:25.219Z,9.00
2019-02-18T08:25:52.309Z,9.33
2019-02-18T08:28:19.581Z,10.90
2019-02-18T08:30:46.655Z,8.80
2019-02-18T08:33:13.814Z,8.80
2019-02-18T08:35:41.103Z,9.70
2019-02-18T08:38:08.211Z,9.43
2019-02-18T08:40:35.319Z,8.70
2019-02-18T08:43:02.423Z,9.43
2019-02-18T08:45:29.511Z,9.30
2019-02-18T08:47:56.610Z,9.20
2019-02-18T08:50:23.711Z,9.10
2019-02-18T08:52:50.793Z,10.10
2019-02-18T08:55:18.061Z,9.37
2019-02-18T08:57:45.139Z,9.00
2019-02-18T09:00:12.238Z,9.47
2019-02-18T09:02:39.325Z,10.00
2019-02-18T09:05:06.422Z,8.30
2019-02-18T09:07:33.578Z,10.57
2019-02-18T09:10:00.644Z,9.47
2019-02-18T09:12:27.743Z,9.97
2019-02-18T09:14:54.814Z,9.93
2019-02-18T09:17:22.739Z,8.83
2019-02-18T09:19:49.970Z,9.57
2019-02-18T09:22:17.075Z,9.53
2019-02-18T09:24:44.278Z,9.63
2019-02-18T09:27:11.431Z,9.60
2019-02-18T09:29:38.582Z,9.30
2019-02-18T09:32:05.646Z,9.10
2019-02-18T09:34:32.886Z,9.07
2019-02-18T09:36:59.957Z,9.03
2019-02-18T09:41:55.867Z,9.10
2019-02-18T09:44:22.937Z,8.90
2019-02-18T09:46:50.165Z,8.70
2019-02-18T09:49:17.402Z,8.23
2019-02-18T09:51:44.499Z,8.00
2019-02-18T09:54:11.574Z,8.20
2019-02-18T09:56:38.776Z,9.37
2019-02-18T09:59:05.890Z,7.90
2019-02-18T10:01:32.978Z,8.67
2019-02-18T10:04:00.060Z,8.07
2019-02-18T10:06:27.156Z,8.53
2019-02-18T10:08:54.252Z,7.60
2019-02-18T10:11:21.378Z,7.57
2019-02-18T10:13:48.442Z,7.73
2019-02-18T10:16:15.548Z,7.20
2019-02-18T10:18:42.647Z,7.70
2019-02-18T10:21:09.707Z,7.43
2019-02-18T10:23:36.794Z,7.33
2019-02-18T10:26:03.906Z,6.53
2019-02-18T10:28:30.988Z,7.27
2019-02-18T10:30:58.123Z,6.87
2019-02-18T10:33:25.321Z,7.50
2019-02-18T10:35:52.432Z,7.30
2019-02-18T10:38:19.503Z,6.63
2019-02-18T10:40:46.600Z,6.87
2019-02-18T10:43:13.719Z,6.90
2019-02-18T10:45:40.849Z,6.93
2019-02-18T10:48:07.985Z,6.17
2019-02-18T10:50:35.184Z,5.87
2019-02-18T10:53:02.328Z,6.50
2019-02-18T10:55:30.760Z,6.53
2019-02-18T10:57:58.122Z,6.20
2019-02-18T11:00:25.254Z,6.63
2019-02-18T11:02:52.306Z,5.90
2019-02-18T11:05:19.575Z,6.10
2019-02-18T11:07:46.641Z,6.07
2019-02-18T11:10:13.747Z,6.07
2019-02-18T11:12:40.840Z,5.50
2019-02-18T11:15:07.898Z,6.50
2019-02-18T11:17:38.864Z,5.50
2019-02-18T11:20:03.795Z,6.10
2019-02-18T11:22:30.959Z,5.23
2019-02-18T11:24:58.034Z,6.23
2019-02-18T11:27:25.267Z,6.23
2019-02-18T11:29:52.360Z,4.90
2019-02-18T11:32:19.777Z,6.07
2019-02-18T11:34:47.229Z,5.50
2019-02-18T11:37:14.319Z,5.50
2019-02-18T11:39:41.434Z,5.47
2019-02-18T11:42:08.547Z,4.97
2019-02-18T11:44:35.704Z,5.40
2019-02-18T11:47:02.778Z,4.90
2019-02-18T11:49:29.852Z,4.40
2019-02-18T11:51:57.299Z,4.47
2019-02-18T11:54:24.429Z,4.90
2019-02-18T11:56:51.509Z,4.67
2019-02-18T11:59:24.317Z,4.93
2019-02-18T12:01:47.382Z,4.80
2019-02-18T12:04:14.720Z,4.50
2019-02-18T12:06:41.878Z,3.90
2019-02-18T12:09:10.642Z,4.70
2019-02-18T12:14:06.774Z,4.40
2019-02-18T12:16:34.545Z,4.50
2019-02-18T12:19:01.865Z,4.33
2019-02-18T12:21:29.117Z,4.33
2019-02-18T12:23:56.358Z,4.57
2019-02-18T12:26:23.619Z,4.30
2019-02-18T12:28:50.964Z,3.70
2019-02-18T12:31:18.300Z,4.00
2019-02-18T12:33:45.400Z,3.60
2019-02-18T12:36:12.625Z,3.40
2019-02-18T12:38:41.160Z,3.57
2019-02-18T12:41:08.581Z,4.43
2019-02-18T12:43:35.647Z,4.77
2019-02-18T12:46:02.928Z,3.90
2019-02-18T12:48:30.067Z,3.50
2019-02-18T12:50:57.120Z,3.87
2019-02-18T12:53:24.216Z,3.57
2019-02-18T12:55:51.342Z,3.80
2019-02-18T12:58:18.499Z,4.00
2019-02-18T13:00:45.644Z,4.17
2019-02-18T13:03:12.816Z,4.10
2019-02-18T13:05:40.459Z,3.60
2019-02-18T13:08:08.123Z,3.30
2019-02-18T13:10:35.306Z,4.00
2019-02-18T13:13:02.436Z,3.60
2019-02-18T13:15:29.591Z,3.60
2019-02-18T13:17:56.745Z,3.30
2019-02-18T13:20:23.921Z,3.83
2019-02-18T13:22:51.083Z,3.20
2019-02-18T13:25:18.163Z,3.37
2019-02-18T13:27:45.891Z,3.20
2019-02-18T13:30:13.010Z,3.17
2019-02-18T13:32:40.182Z,3.30
2019-02-18T13:35:07.278Z,3.17
2019-02-18T13:37:34.416Z,3.37
2019-02-18T13:40:01.547Z,3.30
2019-02-18T13:42:28.646Z,3.67
2019-02-18T13:44:55.722Z,3.17
2019-02-18T13:47:23.150Z,2.90
2019-02-18T13:49:50.324Z,2.97
2019-02-18T13:52:17.448Z,3.20
2019-02-18T13:54:44.626Z,3.43
2019-02-18T13:57:11.753Z,3.07
2019-02-18T13:59:38.855Z,2.53
2019-02-18T14:02:05.961Z,2.53
2019-02-18T14:04:33.408Z,3.30
2019-02-18T14:07:00.566Z,2.97
2019-02-18T14:09:27.642Z,2.90
2019-02-18T14:11:54.764Z,3.20
2019-02-18T14:14:21.917Z,3.37
2019-02-18T14:16:49.032Z,3.13
2019-02-18T14:19:16.398Z,2.70
2019-02-18T14:21:44.030Z,2.80
2019-02-18T14:24:19.323Z,2.37
2019-02-18T14:26:46.426Z,2.77
2019-02-18T14:29:13.570Z,2.97
2019-02-18T14:31:40.911Z,2.60
2019-02-18T14:34:08.037Z,2.83
2019-02-18T14:36:35.126Z,2.70
2019-02-18T14:39:02.356Z,2.03
2019-02-18T14:41:29.438Z,3.77
2019-02-18T14:43:56.725Z,2.80
2019-02-18T14:46:23.784Z,3.10
2019-02-18T14:48:50.949Z,2.90
2019-02-18T14:51:18.132Z,2.90
2019-02-18T14:53:45.324Z,3.10
2019-02-18T14:56:12.762Z,2.80
2019-02-18T14:58:39.848Z,3.17
2019-02-18T15:01:07.057Z,2.90
2019-02-18T15:03:35.360Z,2.43
2019-02-18T15:06:02.458Z,2.50
2019-02-18T15:08:29.582Z,2.87
2019-02-18T15:10:56.687Z,2.30
2019-02-18T15:13:24.182Z,3.73
2019-02-18T15:15:51.265Z,2.53
2019-02-18T15:18:18.419Z,3.20
2019-02-18T15:20:45.483Z,3.87
2019-02-18T15:23:12.663Z,2.47
2019-02-18T15:25:39.731Z,3.17
2019-02-18T15:28:06.879Z,3.07
2019-02-18T15:30:33.976Z,2.80
2019-02-18T15:33:01.215Z,2.73
2019-02-18T15:35:28.393Z,2.37
2019-02-18T15:37:55.539Z,2.30
2019-02-18T15:40:22.788Z,2.33
2019-02-18T15:42:49.954Z,2.63
2019-02-18T15:45:17.312Z,2.97
2019-02-18T15:47:44.476Z,2.53
2019-02-18T15:50:11.813Z,2.73
2019-02-18T15:52:38.999Z,2.50
2019-02-18T15:55:06.163Z,2.90
2019-02-18T15:57:33.347Z,2.80
2019-02-18T16:00:00.469Z,2.83
2019-02-18T16:02:27.582Z,2.90
2019-02-18T16:04:54.716Z,2.87
2019-02-18T16:07:22.311Z,2.73
2019-02-18T16:09:49.370Z,2.50
2019-02-18T16:12:16.470Z,2.83
2019-02-18T16:14:43.613Z,2.63
2019-02-18T16:17:10.798Z,3.83
2019-02-18T16:19:37.868Z,3.30
2019-02-18T16:22:05.034Z,3.00
2019-02-18T16:24:32.126Z,4.20
2019-02-18T16:26:59.185Z,4.37
2019-02-18T16:29:26.289Z,4.10
2019-02-18T16:31:53.473Z,4.20
2019-02-18T16:34:20.531Z,3.87
2019-02-18T16:36:47.690Z,4.70
2019-02-18T16:39:14.948Z,4.13
2019-02-18T16:41:42.035Z,4.53
2019-02-18T16:44:09.242Z,4.77
2019-02-18T16:46:36.404Z,4.17
2019-02-18T16:49:03.914Z,4.50
2019-02-18T16:51:31.112Z,5.30
2019-02-18T16:53:58.187Z,24.83
2019-02-18T16:56:25.303Z,14.47
2019-02-18T16:58:52.445Z,8.87
2019-02-18T17:01:19.924Z,10.07
2019-02-18T17:03:47.106Z,7.13
2019-02-18T17:06:14.273Z,6.43
2019-02-18T17:08:41.450Z,7.57
2019-02-18T17:11:08.608Z,6.30
2019-02-18T17:13:35.890Z,4.60
2019-02-18T17:16:03.066Z,5.97
2019-02-18T17:18:30.783Z,5.83
2019-02-18T17:20:57.974Z,5.13
2019-02-18T17:23:25.161Z,5.83
2019-02-18T17:25:52.298Z,5.30
2019-02-18T17:28:19.472Z,6.10
2019-02-18T17:30:46.610Z,7.33
2019-02-18T17:33:13.699Z,7.80
2019-02-18T17:35:40.773Z,11.43
2019-02-18T17:38:08.345Z,11.33
2019-02-18T17:40:35.437Z,12.90
2019-02-18T17:43:02.607Z,14.10
2019-02-18T17:45:29.791Z,16.23
2019-02-18T17:47:56.957Z,17.37
2019-02-18T17:50:24.021Z,16.80
2019-02-18T17:52:51.195Z,19.17
2019-02-18T17:55:18.672Z,20.07
2019-02-18T17:57:45.862Z,19.77
2019-02-18T18:00:12.981Z,18.60
2019-02-18T18:02:40.147Z,19.00
2019-02-18T18:05:07.276Z,20.47
2019-02-18T18:07:34.463Z,19.10
2019-02-18T18:10:01.552Z,19.40
2019-02-18T18:12:28.734Z,19.13
2019-02-18T18:14:56.301Z,18.20
2019-02-18T18:17:23.967Z,17.73
2019-02-18T18:19:51.044Z,18.43
2019-02-18T18:22:18.216Z,18.10
2019-02-18T18:24:45.364Z,17.50
2019-02-18T18:27:12.503Z,18.07
2019-02-18T18:29:39.597Z,18.47
2019-02-18T18:32:07.043Z,17.60
2019-02-18T18:34:34.167Z,16.10
2019-02-18T18:37:01.232Z,16.03
2019-02-18T18:39:28.329Z,14.60
2019-02-18T18:41:55.395Z,15.50
2019-02-18T18:44:22.565Z,13.57
2019-02-18T18:46:49.626Z,14.50
2019-02-18T18:49:17.210Z,15.07
2019-02-18T18:51:44.271Z,14.60
2019-02-18T18:54:11.379Z,13.80
2019-02-18T18:56:38.462Z,14.40
2019-02-18T18:59:05.642Z,12.13
2019-02-18T19:01:32.767Z,12.30
2019-02-18T19:03:59.958Z,13.00
2019-02-18T19:06:27.431Z,12.97
2019-02-18T19:08:54.578Z,11.27
2019-02-18T19:11:21.646Z,11.10
2019-02-18T19:13:48.763Z,11.73
2019-02-18T19:16:15.823Z,10.63
2019-02-18T19:18:42.918Z,11.33
2019-02-18T19:21:10.039Z,11.77
2019-02-18T19:23:37.798Z,9.47
2019-02-18T19:26:04.908Z,10.90
2019-02-18T19:28:32.068Z,10.30
2019-02-18T19:30:59.170Z,9.00
2019-02-18T19:33:26.312Z,9.50
2019-02-18T19:35:53.631Z,10.23
2019-02-18T19:38:20.757Z,10.40
2019-02-18T19:40:48.339Z,9.97
2019-02-18T19:43:15.462Z,9.27
2019-02-18T19:45:43.055Z,9.57
2019-02-18T19:48:10.093Z,8.50
2019-02-18T19:50:37.222Z,9.07
2019-02-18T19:53:04.395Z,8.83
2019-02-18T19:55:31.652Z,7.60
2019-02-18T19:57:59.026Z,8.07
2019-02-18T20:00:26.134Z,8.10
2019-02-18T20:02:53.310Z,8.53
2019-02-18T20:05:20.435Z,7.60
2019-02-18T20:07:47.791Z,8.60
2019-02-18T20:10:14.987Z,7.53
2019-02-18T20:12:42.092Z,8.10
2019-02-18T20:15:09.697Z,7.97
2019-02-18T20:17:36.766Z,7.83
2019-02-18T20:20:04.097Z,7.40
2019-02-18T20:22:31.221Z,6.70
2019-02-18T20:24:58.514Z,7.17
2019-02-18T20:27:25.578Z,6.43
2019-02-18T20:29:52.670Z,6.53
2019-02-18T20:32:20.541Z,6.60
2019-02-18T20:34:47.642Z,6.47
2019-02-18T20:37:15.007Z,6.93
2019-02-18T20:39:42.128Z,6.40
2019-02-18T20:42:09.295Z,6.37
2019-02-18T20:44:36.358Z,6.57
2019-02-18T20:47:03.549Z,5.67
2019-02-18T20:49:30.976Z,5.30
2019-02-18T20:51:58.127Z,5.30
2019-02-18T20:54:25.238Z,5.70
2019-02-18T20:56:52.302Z,5.40
2019-02-18T20:59:19.604Z,5.40
2019-02-18T21:01:46.798Z,5.53
2019-02-18T21:04:14.108Z,5.47
2019-02-18T21:06:41.859Z,5.13
2019-02-18T21:09:09.364Z,5.33
2019-02-18T21:11:36.657Z,5.53
2019-02-18T21:14:04.223Z,5.10
2019-02-18T21:16:31.497Z,4.77
2019-02-18T21:18:58.906Z,5.60
2019-02-18T21:21:25.993Z,4.73
2019-02-18T21:23:53.745Z,5.20
2019-02-18T21:26:21.002Z,4.80
2019-02-18T21:28:48.174Z,5.13
2019-02-18T21:31:15.220Z,4.60
2019-02-18T21:33:42.359Z,5.03
2019-02-18T21:36:09.464Z,4.60
2019-02-18T21:38:36.514Z,4.80
2019-02-18T21:41:03.599Z,4.50
2019-02-18T21:43:30.966Z,4.23
2019-02-18T21:45:58.016Z,4.20
2019-02-18T21:48:25.110Z,3.73
2019-02-18T21:50:52.201Z,4.60
2019-02-18T21:53:19.339Z,4.53
2019-02-18T21:55:46.833Z,4.93
2019-02-18T21:58:14.746Z,4.97
2019-02-18T22:00:42.052Z,5.43
2019-02-18T22:03:09.353Z,4.90
2019-02-18T22:05:37.681Z,5.40
2019-02-18T22:08:05.965Z,5.73
2019-02-18T22:10:33.438Z,5.20
2019-02-18T22:13:00.622Z,5.30
2019-02-18T22:15:27.683Z,6.40
2019-02-18T22:17:55.366Z,6.03
2019-02-18T22:20:22.614Z,5.73
2019-02-18T22:25:42.051Z,5.43
2019-02-18T22:28:09.729Z,5.90
2019-02-18T22:30:38.458Z,5.47
2019-02-18T22:33:05.678Z,6.10
2019-02-18T22:35:32.947Z,5.50
2019-02-18T22:38:00.217Z,5.60
2019-02-18T22:40:27.306Z,5.17
2019-02-18T22:42:54.397Z,5.73
2019-02-18T22:45:23.385Z,6.43
2019-02-18T22:47:50.548Z,5.70
2019-02-18T22:50:17.877Z,6.60
2019-02-18T22:52:44.973Z,6.30
2019-02-18T22:55:14.054Z,6.10
2019-02-18T22:57:41.288Z,5.33
2019-02-18T23:00:08.387Z,6.23
2019-02-18T23:02:35.488Z,6.00
2019-02-18T23:05:02.548Z,6.27
2019-02-18T23:07:30.144Z,5.67
2019-02-18T23:09:57.269Z,5.40
2019-02-18T23:12:24.634Z,4.87
2019-02-18T23:14:51.855Z,5.90
2019-02-18T23:17:19.131Z,5.60
2019-02-18T23:19:46.186Z,5.60
2019-02-18T23:22:13.289Z,6.57
2019-02-18T23:24:40.458Z,5.30
2019-02-18T23:27:07.979Z,5.17
2019-02-18T23:29:38.138Z,5.50
2019-02-18T23:32:05.435Z,5.70
2019-02-18T23:34:34.763Z,5.70
2019-02-18T23:37:01.884Z,5.50
2019-02-18T23:39:28.979Z,5.60
2019-02-18T23:41:56.217Z,5.40
2019-02-18T23:44:23.401Z,5.40
2019-02-18T23:46:50.487Z,5.83
2019-02-18T23:49:18.723Z,5.50
2019-02-18T23:51:45.926Z,6.00
2019-02-18T23:54:13.275Z,5.43
2019-02-18T23:56:40.488Z,5.07
2019-02-18T23:59:07.582Z,5.73
